createdAt,value
2022-09-04T00:00:49.938Z,14.46
2022-09-04T00:01:49.903Z,14.49
2022-09-04T00:02:49.896Z,14.64
2022-09-04T00:03:50.007Z,14.79
2022-09-04T00:04:50.035Z,14.75
2022-09-04T00:05:49.858Z,14.67
2022-09-04T00:06:49.882Z,14.71
2022-09-04T00:07:49.838Z,14.61
2022-09-04T00:08:49.829Z,14.56
2022-09-04T00:09:49.863Z,14.45
2022-09-04T00:10:49.829Z,14.49
2022-09-04T00:11:49.797Z,14.56
2022-09-04T00:12:49.786Z,14.49
2022-09-04T00:13:49.778Z,14.49
2022-09-04T00:14:49.764Z,14.52
2022-09-04T00:15:49.806Z,14.41
2022-09-04T00:16:49.816Z,14.82
2022-09-04T00:17:49.727Z,15.16
2022-09-04T00:18:49.724Z,15.51
2022-09-04T00:19:49.729Z,15.66
2022-09-04T00:20:49.696Z,15.68
2022-09-04T00:21:49.730Z,15.77
2022-09-04T00:22:49.675Z,15.86
2022-09-04T00:23:49.663Z,15.89
2022-09-04T00:24:49.674Z,16.01
2022-09-04T00:25:49.651Z,15.98
2022-09-04T00:26:49.647Z,16.06
2022-09-04T00:27:49.662Z,16.10
2022-09-04T00:28:49.614Z,16.06
2022-09-04T00:29:49.605Z,16.11
2022-09-04T00:30:49.649Z,16.22
2022-09-04T00:31:49.594Z,16.29
2022-09-04T00:32:49.569Z,16.18
2022-09-04T00:33:49.601Z,16.17
2022-09-04T00:34:49.552Z,16.07
2022-09-04T00:35:49.533Z,16.07
2022-09-04T00:36:50.427Z,16.10
2022-09-04T00:37:49.527Z,16.03
2022-09-04T00:38:49.504Z,16.10
2022-09-04T00:39:49.575Z,16.06
2022-09-04T00:40:49.477Z,15.98
2022-09-04T00:41:49.472Z,15.93
2022-09-04T00:42:49.481Z,16.03
2022-09-04T00:43:49.499Z,15.98
2022-09-04T00:44:49.450Z,16.06
2022-09-04T00:45:49.487Z,16.03
2022-09-04T00:46:49.413Z,15.95
2022-09-04T00:47:49.431Z,15.95
2022-09-04T00:48:49.397Z,15.96
2022-09-04T00:49:49.395Z,16.01
2022-09-04T00:50:49.368Z,16.01
2022-09-04T00:51:49.387Z,16.14
2022-09-04T00:52:49.365Z,16.23
2022-09-04T00:53:49.336Z,16.27
2022-09-04T00:54:49.339Z,16.41
2022-09-04T00:55:49.312Z,16.32
2022-09-04T00:56:49.303Z,16.41
2022-09-04T00:57:49.324Z,16.36
2022-09-04T00:58:49.282Z,16.45
2022-09-04T00:59:49.315Z,16.45
2022-09-04T01:00:49.334Z,16.45
2022-09-04T01:01:49.429Z,16.37
2022-09-04T01:02:49.239Z,16.36
2022-09-04T01:03:49.291Z,16.27
2022-09-04T01:04:49.255Z,16.16
2022-09-04T01:05:49.213Z,16.16
2022-09-04T01:06:49.192Z,16.11
2022-09-04T01:07:49.183Z,16.17
2022-09-04T01:08:49.188Z,16.18
2022-09-04T01:09:50.185Z,16.23
2022-09-04T01:10:49.150Z,16.16
2022-09-04T01:11:49.152Z,16.18
2022-09-04T01:12:49.131Z,16.08
2022-09-04T01:13:49.130Z,16.13
2022-09-04T01:14:52.068Z,16.13
2022-09-04T01:15:49.142Z,16.14
2022-09-04T01:16:49.177Z,16.16
2022-09-04T01:17:49.077Z,16.18
2022-09-04T01:18:49.087Z,16.16
2022-09-04T01:19:49.076Z,16.13
2022-09-04T01:20:49.040Z,16.17
2022-09-04T01:21:49.072Z,16.14
2022-09-04T01:22:49.024Z,16.17
2022-09-04T01:23:49.009Z,16.22
2022-09-04T01:24:49.012Z,16.25
2022-09-04T01:25:48.993Z,16.23
2022-09-04T01:26:48.975Z,16.14
2022-09-04T01:27:48.996Z,16.14
2022-09-04T01:28:48.954Z,16.16
2022-09-04T01:29:48.969Z,16.22
2022-09-04T01:30:48.931Z,16.18
2022-09-04T01:31:49.002Z,16.26
2022-09-04T01:32:48.916Z,16.26
2022-09-04T01:33:48.959Z,16.32
2022-09-04T01:34:48.909Z,16.30
2022-09-04T01:35:48.905Z,16.26
2022-09-04T01:36:48.866Z,16.17
2022-09-04T01:37:48.864Z,16.17
2022-09-04T01:38:48.844Z,16.17
2022-09-04T01:39:48.908Z,16.22
2022-09-04T01:40:48.836Z,16.18
2022-09-04T01:41:48.812Z,16.18
2022-09-04T01:42:48.801Z,16.11
2022-09-04T01:43:48.790Z,16.18
2022-09-04T01:44:48.779Z,16.18
2022-09-04T01:45:48.852Z,16.18
2022-09-04T01:46:48.757Z,16.07
2022-09-04T01:47:48.754Z,16.07
2022-09-04T01:48:48.735Z,16.10
2022-09-04T01:49:48.751Z,16.04
2022-09-04T01:50:48.717Z,16.04
2022-09-04T01:51:48.733Z,16.10
2022-09-04T01:52:48.693Z,16.03
2022-09-04T01:53:48.684Z,16.08
2022-09-04T01:54:48.686Z,16.04
2022-09-04T01:55:48.693Z,16.08
2022-09-04T01:56:48.652Z,16.10
2022-09-04T01:57:48.637Z,16.08
2022-09-04T01:58:48.667Z,16.14
2022-09-04T01:59:51.858Z,16.14
2022-09-04T02:00:49.627Z,16.16
2022-09-04T02:01:48.666Z,16.11
2022-09-04T02:02:48.859Z,16.16
2022-09-04T02:03:48.571Z,16.16
2022-09-04T02:04:48.625Z,16.13
2022-09-04T02:05:48.569Z,16.17
2022-09-04T02:06:48.539Z,16.08
2022-09-04T02:07:48.526Z,16.08
2022-09-04T02:08:48.516Z,16.13
2022-09-04T02:09:48.528Z,16.08
2022-09-04T02:10:48.559Z,16.10
2022-09-04T02:11:48.481Z,16.11
2022-09-04T02:12:48.477Z,16.11
2022-09-04T02:13:48.464Z,16.14
2022-09-04T02:14:48.467Z,16.17
2022-09-04T02:15:48.444Z,16.14
2022-09-04T02:16:48.608Z,16.06
2022-09-04T02:17:48.426Z,16.10
2022-09-04T02:18:48.406Z,16.10
2022-09-04T02:19:48.407Z,16.06
2022-09-04T02:20:48.388Z,16.10
2022-09-04T02:21:48.377Z,16.06
2022-09-04T02:22:48.364Z,16.07
2022-09-04T02:23:48.388Z,16.07
2022-09-04T02:24:48.358Z,15.99
2022-09-04T02:25:48.330Z,15.98
2022-09-04T02:26:48.343Z,15.96
2022-09-04T02:27:48.309Z,15.95
2022-09-04T02:28:48.301Z,15.96
2022-09-04T02:29:48.310Z,15.91
2022-09-04T02:30:49.379Z,15.96
2022-09-04T02:31:49.457Z,15.92
2022-09-04T02:32:48.265Z,15.88
2022-09-04T02:33:48.246Z,15.95
2022-09-04T02:34:48.249Z,15.78
2022-09-04T02:35:48.262Z,15.86
2022-09-04T02:36:50.206Z,15.89
2022-09-04T02:37:48.233Z,15.85
2022-09-04T02:38:48.191Z,15.91
2022-09-04T02:39:48.251Z,15.92
2022-09-04T02:40:48.170Z,15.93
2022-09-04T02:41:48.330Z,15.95
2022-09-04T02:42:48.151Z,15.92
2022-09-04T02:43:48.132Z,15.81
2022-09-04T02:44:48.182Z,15.88
2022-09-04T02:45:48.114Z,15.88
2022-09-04T02:46:48.128Z,15.80
2022-09-04T02:47:48.145Z,15.78
2022-09-04T02:48:48.090Z,15.80
2022-09-04T02:49:48.093Z,15.73
2022-09-04T02:50:48.062Z,15.68
2022-09-04T02:51:48.047Z,15.67
2022-09-04T02:52:48.494Z,15.71
2022-09-04T02:53:48.034Z,15.66
2022-09-04T02:54:48.051Z,15.62
2022-09-04T02:55:48.002Z,15.59
2022-09-04T02:56:47.997Z,15.67
2022-09-04T02:57:47.979Z,15.56
2022-09-04T02:58:48.010Z,15.64
2022-09-04T02:59:47.985Z,15.67
2022-09-04T03:00:47.979Z,15.60
2022-09-04T03:01:50.463Z,15.59
2022-09-04T03:02:47.930Z,15.67
2022-09-04T03:03:47.917Z,15.66
2022-09-04T03:04:47.991Z,15.62
2022-09-04T03:05:47.897Z,15.62
2022-09-04T03:06:47.885Z,15.68
2022-09-04T03:07:47.874Z,15.77
2022-09-04T03:08:47.885Z,15.73
2022-09-04T03:09:47.897Z,15.78
2022-09-04T03:10:47.890Z,15.73
2022-09-04T03:11:47.842Z,15.77
2022-09-04T03:12:47.819Z,15.78
2022-09-04T03:13:47.858Z,15.71
2022-09-04T03:14:47.812Z,15.73
2022-09-04T03:15:47.895Z,15.73
2022-09-04T03:16:47.821Z,15.73
2022-09-04T03:17:47.768Z,15.70
2022-09-04T03:18:47.761Z,15.71
2022-09-04T03:19:47.765Z,15.68
2022-09-04T03:20:47.734Z,15.70
2022-09-04T03:21:47.726Z,15.71
2022-09-04T03:22:47.772Z,15.67
2022-09-04T03:23:47.701Z,15.76
2022-09-04T03:24:47.726Z,15.74
2022-09-04T03:25:47.678Z,15.66
2022-09-04T03:26:47.667Z,15.68
2022-09-04T03:27:47.657Z,15.66
2022-09-04T03:28:47.694Z,15.58
2022-09-04T03:29:47.679Z,15.60
2022-09-04T03:30:47.624Z,15.68
2022-09-04T03:31:47.665Z,15.53
2022-09-04T03:32:47.602Z,15.59
2022-09-04T03:33:47.592Z,15.53
2022-09-04T03:34:47.677Z,15.55
2022-09-04T03:35:47.570Z,15.49
2022-09-04T03:36:47.563Z,15.58
2022-09-04T03:37:47.559Z,15.59
2022-09-04T03:38:47.537Z,15.52
2022-09-04T03:39:47.617Z,15.49
2022-09-04T03:40:47.560Z,15.59
2022-09-04T03:41:47.519Z,15.40
2022-09-04T03:42:47.507Z,15.37
2022-09-04T03:43:47.486Z,15.46
2022-09-04T03:44:47.490Z,15.43
2022-09-04T03:45:48.462Z,15.51
2022-09-04T03:46:47.578Z,15.48
2022-09-04T03:47:47.442Z,15.48
2022-09-04T03:48:47.431Z,15.44
2022-09-04T03:49:47.446Z,15.38
2022-09-04T03:50:47.415Z,15.40
2022-09-04T03:51:47.399Z,15.38
2022-09-04T03:52:47.427Z,15.41
2022-09-04T03:53:47.387Z,15.38
2022-09-04T03:54:47.383Z,15.35
2022-09-04T03:55:47.401Z,15.41
2022-09-04T03:56:47.347Z,15.41
2022-09-04T03:57:47.343Z,15.44
2022-09-04T03:58:47.362Z,15.38
2022-09-04T03:59:47.328Z,15.38
2022-09-04T04:00:47.365Z,15.34
2022-09-04T04:01:47.295Z,15.38
2022-09-04T04:02:47.372Z,15.27
2022-09-04T04:03:47.271Z,15.35
2022-09-04T04:04:47.309Z,15.31
2022-09-04T04:05:48.394Z,15.28
2022-09-04T04:06:47.236Z,15.33
2022-09-04T04:07:47.226Z,15.18
2022-09-04T04:08:47.217Z,15.27
2022-09-04T04:09:47.223Z,15.31
2022-09-04T04:10:47.225Z,15.38
2022-09-04T04:11:47.188Z,15.28
2022-09-04T04:12:47.172Z,15.34
2022-09-04T04:13:47.163Z,15.22
2022-09-04T04:14:47.164Z,15.33
2022-09-04T04:15:47.180Z,15.43
2022-09-04T04:16:50.325Z,15.46
2022-09-04T04:17:48.121Z,15.46
2022-09-04T04:18:47.107Z,15.48
2022-09-04T04:19:47.111Z,15.70
2022-09-04T04:20:47.086Z,15.66
2022-09-04T04:21:47.078Z,15.76
2022-09-04T04:22:47.094Z,15.78
2022-09-04T04:23:47.076Z,15.77
2022-09-04T04:24:47.072Z,15.85
2022-09-04T04:25:47.045Z,15.76
2022-09-04T04:26:51.652Z,15.80
2022-09-04T04:27:48.652Z,15.76
2022-09-04T04:28:47.029Z,15.80
2022-09-04T04:29:46.990Z,15.77
2022-09-04T04:30:46.991Z,15.68
2022-09-04T04:31:47.077Z,15.71
2022-09-04T04:32:47.003Z,15.66
2022-09-04T04:33:46.950Z,15.62
2022-09-04T04:34:46.987Z,15.70
2022-09-04T04:35:46.929Z,15.73
2022-09-04T04:36:46.914Z,15.59
2022-09-04T04:37:46.907Z,15.66
2022-09-04T04:38:46.910Z,15.66
2022-09-04T04:39:46.928Z,15.60
2022-09-04T04:40:46.906Z,15.59
2022-09-04T04:41:46.869Z,15.64
2022-09-04T04:42:46.848Z,15.59
2022-09-04T04:43:46.856Z,15.64
2022-09-04T04:44:46.827Z,15.64
2022-09-04T04:45:46.822Z,15.70
2022-09-04T04:46:46.867Z,15.62
2022-09-04T04:47:46.798Z,15.56
2022-09-04T04:48:46.800Z,15.59
2022-09-04T04:49:46.775Z,15.67
2022-09-04T04:50:46.762Z,15.70
2022-09-04T04:51:46.754Z,15.60
2022-09-04T04:52:46.788Z,15.71
2022-09-04T04:53:46.746Z,15.60
2022-09-04T04:54:46.718Z,15.64
2022-09-04T04:55:46.709Z,15.67
2022-09-04T04:56:46.698Z,15.68
2022-09-04T04:57:46.693Z,15.64
2022-09-04T04:58:46.730Z,15.62
2022-09-04T04:59:46.667Z,15.56
2022-09-04T05:00:46.695Z,15.64
2022-09-04T05:01:46.736Z,15.52
2022-09-04T05:02:46.911Z,15.41
2022-09-04T05:03:46.646Z,15.37
2022-09-04T05:04:46.638Z,15.33
2022-09-04T05:05:46.616Z,15.20
2022-09-04T05:06:46.587Z,15.16
2022-09-04T05:07:46.585Z,15.13
2022-09-04T05:08:46.594Z,15.00
2022-09-04T05:09:46.560Z,14.83
2022-09-04T05:10:46.583Z,14.74
2022-09-04T05:11:46.553Z,14.72
2022-09-04T05:12:46.526Z,14.72
2022-09-04T05:13:48.560Z,14.66
2022-09-04T05:14:46.520Z,14.53
2022-09-04T05:16:07.335Z,14.48
2022-09-04T05:16:50.030Z,14.42
2022-09-04T05:17:46.473Z,14.49
2022-09-04T05:18:46.457Z,14.36
2022-09-04T05:19:46.467Z,14.54
2022-09-04T05:20:46.436Z,14.63
2022-09-04T05:21:46.445Z,14.83
2022-09-04T05:22:46.475Z,14.79
2022-09-04T05:23:46.406Z,14.94
2022-09-04T05:24:46.407Z,15.15
2022-09-04T05:25:46.384Z,15.23
2022-09-04T05:26:46.398Z,15.22
2022-09-04T05:27:46.364Z,15.31
2022-09-04T05:28:46.391Z,15.28
2022-09-04T05:29:46.401Z,15.25
2022-09-04T05:30:46.329Z,15.31
2022-09-04T05:31:46.318Z,15.22
2022-09-04T05:32:46.307Z,15.20
2022-09-04T05:33:46.320Z,15.27
2022-09-04T05:34:46.385Z,15.15
2022-09-04T05:35:46.287Z,15.18
2022-09-04T05:36:46.264Z,15.15
2022-09-04T05:37:46.255Z,15.12
2022-09-04T05:38:46.243Z,15.13
2022-09-04T05:39:46.325Z,15.01
2022-09-04T05:40:46.265Z,15.07
2022-09-04T05:41:46.230Z,15.16
2022-09-04T05:42:46.205Z,15.31
2022-09-04T05:43:46.190Z,15.41
2022-09-04T05:44:46.245Z,15.38
2022-09-04T05:45:46.213Z,15.49
2022-09-04T05:46:46.290Z,15.59
2022-09-04T05:47:47.147Z,15.66
2022-09-04T05:48:46.165Z,15.68
2022-09-04T05:49:46.136Z,15.71
2022-09-04T05:50:46.130Z,15.91
2022-09-04T05:51:46.104Z,15.91
2022-09-04T05:52:46.094Z,15.99
2022-09-04T05:53:46.124Z,16.10
2022-09-04T05:54:46.085Z,16.03
2022-09-04T05:55:46.065Z,16.13
2022-09-04T05:56:46.051Z,16.16
2022-09-04T05:57:46.039Z,16.25
2022-09-04T05:58:46.029Z,16.30
2022-09-04T05:59:46.093Z,16.47
2022-09-04T06:00:46.010Z,16.51
2022-09-04T06:01:51.197Z,16.60
2022-09-04T06:02:47.086Z,16.73
2022-09-04T06:03:45.974Z,16.80
2022-09-04T06:04:45.976Z,16.77
2022-09-04T06:05:46.013Z,16.92
2022-09-04T06:06:45.941Z,16.98
2022-09-04T06:07:45.932Z,17.15
2022-09-04T06:08:45.922Z,17.15
2022-09-04T06:09:45.935Z,17.24
2022-09-04T06:10:45.919Z,17.25
2022-09-04T06:11:45.918Z,17.27
2022-09-04T06:12:45.886Z,17.43
2022-09-04T06:13:45.867Z,17.47
2022-09-04T06:14:45.885Z,17.51
2022-09-04T06:15:45.894Z,17.62
2022-09-04T06:16:45.865Z,17.80
2022-09-04T06:17:45.866Z,17.91
2022-09-04T06:18:45.811Z,17.95
2022-09-04T06:19:45.837Z,18.14
2022-09-04T06:20:45.789Z,18.38
2022-09-04T06:21:45.780Z,18.65
2022-09-04T06:22:48.137Z,18.96
2022-09-04T06:23:45.847Z,19.17
2022-09-04T06:24:45.778Z,19.17
2022-09-04T06:25:45.737Z,19.17
2022-09-04T06:26:45.722Z,19.47
2022-09-04T06:27:45.744Z,19.79
2022-09-04T06:28:46.262Z,20.05
2022-09-04T06:29:45.735Z,20.37
2022-09-04T06:30:45.681Z,20.69
2022-09-04T06:31:45.696Z,20.97
2022-09-04T06:32:45.679Z,21.24
2022-09-04T06:33:45.651Z,21.43
2022-09-04T06:34:45.654Z,21.79
2022-09-04T06:35:45.650Z,21.94
2022-09-04T06:36:45.618Z,22.04
2022-09-04T06:37:45.646Z,22.02
2022-09-04T06:38:45.620Z,21.77
2022-09-04T06:39:45.750Z,21.63
2022-09-04T06:40:45.576Z,21.81
2022-09-04T06:41:45.643Z,22.08
2022-09-04T06:42:45.553Z,22.31
2022-09-04T06:43:45.542Z,21.99
2022-09-04T06:44:45.542Z,22.21
2022-09-04T06:45:45.518Z,22.38
2022-09-04T06:46:45.556Z,22.74
2022-09-04T06:47:45.514Z,23.11
2022-09-04T06:48:45.532Z,23.14
2022-09-04T06:49:45.500Z,23.12
2022-09-04T06:50:45.465Z,23.53
2022-09-04T06:51:45.456Z,23.69
2022-09-04T06:52:45.446Z,23.82
2022-09-04T06:53:45.435Z,24.14
2022-09-04T06:54:45.472Z,23.86
2022-09-04T06:55:45.413Z,23.96
2022-09-04T06:56:45.399Z,24.14
2022-09-04T06:57:45.390Z,23.84
2022-09-04T06:58:45.414Z,23.82
2022-09-04T06:59:45.372Z,23.79
2022-09-04T07:00:45.356Z,24.11
2022-09-04T07:01:45.457Z,24.06
2022-09-04T07:02:45.463Z,24.33
2022-09-04T07:03:45.341Z,24.53
2022-09-04T07:04:45.337Z,24.70
2022-09-04T07:05:45.307Z,24.46
2022-09-04T07:06:45.316Z,24.45
2022-09-04T07:07:45.293Z,24.19
2022-09-04T07:08:45.288Z,23.96
2022-09-04T07:09:45.270Z,23.93
2022-09-04T07:10:45.321Z,24.00
2022-09-04T07:11:45.280Z,23.54
2022-09-04T07:12:45.243Z,23.64
2022-09-04T07:13:45.262Z,23.86
2022-09-04T07:14:45.212Z,24.21
2022-09-04T07:15:45.329Z,24.19
2022-09-04T07:16:45.219Z,23.74
2022-09-04T07:17:45.186Z,23.78
2022-09-04T07:18:45.249Z,23.32
2022-09-04T07:19:45.175Z,22.67
2022-09-04T07:20:45.140Z,22.72
2022-09-04T07:21:45.155Z,23.07
2022-09-04T07:22:45.118Z,23.42
2022-09-04T07:23:45.151Z,23.07
2022-09-04T07:24:45.126Z,23.29
2022-09-04T07:25:45.089Z,23.50
2022-09-04T07:26:45.089Z,23.79
2022-09-04T07:27:45.104Z,23.35
2022-09-04T07:28:45.079Z,23.19
2022-09-04T07:29:45.067Z,22.67
2022-09-04T07:30:45.044Z,23.19
2022-09-04T07:31:45.094Z,23.53
2022-09-04T07:32:45.019Z,23.84
2022-09-04T07:33:45.060Z,24.49
2022-09-04T07:34:45.008Z,25.09
2022-09-04T07:35:45.003Z,25.14
2022-09-04T07:36:44.972Z,25.11
2022-09-04T07:37:44.960Z,24.89
2022-09-04T07:38:45.337Z,25.17
2022-09-04T07:39:46.095Z,25.38
2022-09-04T07:40:44.938Z,25.57
2022-09-04T07:41:44.942Z,25.54
2022-09-04T07:42:44.907Z,25.27
2022-09-04T07:43:44.901Z,25.41
2022-09-04T07:44:44.904Z,25.41
2022-09-04T07:45:44.915Z,25.72
2022-09-04T07:46:44.915Z,26.16
2022-09-04T07:47:44.879Z,26.46
2022-09-04T07:48:44.866Z,26.94
2022-09-04T07:49:44.879Z,26.71
2022-09-04T07:50:44.861Z,26.97
2022-09-04T07:51:44.813Z,27.24
2022-09-04T07:52:44.799Z,27.45
2022-09-04T07:53:44.787Z,27.39
2022-09-04T07:54:44.815Z,27.55
2022-09-04T07:55:44.796Z,27.59
2022-09-04T07:56:44.773Z,27.39
2022-09-04T07:57:44.746Z,27.13
2022-09-04T07:58:44.731Z,26.88
2022-09-04T07:59:44.740Z,26.93
2022-09-04T08:00:44.739Z,27.23
2022-09-04T08:01:44.779Z,27.34
2022-09-04T08:02:44.727Z,27.48
2022-09-04T08:03:53.748Z,27.58
2022-09-04T08:04:45.707Z,27.81
2022-09-04T08:05:44.658Z,27.90
2022-09-04T08:06:44.676Z,27.76
2022-09-04T08:07:44.646Z,27.35
2022-09-04T08:08:44.653Z,27.20
2022-09-04T08:09:44.655Z,27.46
2022-09-04T08:10:44.603Z,27.59
2022-09-04T08:11:44.589Z,27.78
2022-09-04T08:12:44.582Z,27.74
2022-09-04T08:13:44.567Z,27.76
2022-09-04T08:14:44.691Z,27.87
2022-09-04T08:15:44.611Z,27.96
2022-09-04T08:16:44.551Z,28.08
2022-09-04T08:17:44.536Z,28.20
2022-09-04T08:18:44.542Z,28.33
2022-09-04T08:19:44.596Z,28.43
2022-09-04T08:20:44.515Z,28.39
2022-09-04T08:21:44.533Z,27.93
2022-09-04T08:22:44.492Z,28.21
2022-09-04T08:23:44.509Z,28.51
2022-09-04T08:24:44.601Z,28.64
2022-09-04T08:25:44.440Z,28.58
2022-09-04T08:26:44.452Z,28.40
2022-09-04T08:27:44.831Z,27.52
2022-09-04T08:28:46.389Z,27.40
2022-09-04T08:29:44.392Z,27.27
2022-09-04T08:30:44.587Z,27.09
2022-09-04T08:31:44.411Z,26.36
2022-09-04T08:32:44.362Z,25.69
2022-09-04T08:33:44.396Z,25.64
2022-09-04T08:34:44.474Z,25.27
2022-09-04T08:35:44.360Z,25.20
2022-09-04T08:36:44.327Z,25.26
2022-09-04T08:37:44.362Z,25.35
2022-09-04T08:38:44.358Z,25.38
2022-09-04T08:39:44.354Z,25.34
2022-09-04T08:40:44.287Z,25.56
2022-09-04T08:41:44.355Z,25.91
2022-09-04T08:42:44.272Z,26.38
2022-09-04T08:43:44.327Z,26.08
2022-09-04T08:44:44.278Z,25.54
2022-09-04T08:45:44.233Z,25.81
2022-09-04T08:46:44.307Z,26.29
2022-09-04T08:47:44.284Z,26.71
2022-09-04T08:48:44.228Z,26.96
2022-09-04T08:49:44.215Z,27.11
2022-09-04T08:50:44.239Z,27.21
2022-09-04T08:51:44.160Z,27.52
2022-09-04T08:52:44.150Z,27.88
2022-09-04T08:53:44.146Z,28.35
2022-09-04T08:54:44.173Z,28.03
2022-09-04T08:55:44.154Z,28.03
2022-09-04T08:56:44.172Z,28.08
2022-09-04T08:57:44.124Z,28.30
2022-09-04T08:58:47.841Z,28.42
2022-09-04T08:59:44.132Z,28.70
2022-09-04T09:00:44.076Z,28.18
2022-09-04T09:01:44.170Z,27.87
2022-09-04T09:02:44.131Z,27.55
2022-09-04T09:03:44.030Z,27.53
2022-09-04T09:04:44.072Z,27.40
2022-09-04T09:05:44.044Z,27.11
2022-09-04T09:06:44.012Z,27.06
2022-09-04T09:07:43.994Z,27.08
2022-09-04T09:08:44.067Z,27.24
2022-09-04T09:09:43.997Z,27.38
2022-09-04T09:10:43.983Z,27.71
2022-09-04T09:11:43.962Z,27.80
2022-09-04T09:12:43.948Z,28.09
2022-09-04T09:13:43.939Z,28.35
2022-09-04T09:14:43.933Z,28.54
2022-09-04T09:15:43.920Z,28.60
2022-09-04T09:16:44.110Z,28.83
2022-09-04T09:17:43.897Z,28.94
2022-09-04T09:18:43.882Z,28.85
2022-09-04T09:19:43.921Z,28.89
2022-09-04T09:20:43.925Z,28.89
2022-09-04T09:21:43.905Z,29.12
2022-09-04T09:22:43.842Z,29.41
2022-09-04T09:23:43.867Z,29.47
2022-09-04T09:24:43.834Z,29.48
2022-09-04T09:25:44.167Z,29.10
2022-09-04T09:26:43.793Z,29.41
2022-09-04T09:27:43.795Z,29.42
2022-09-04T09:28:43.766Z,29.32
2022-09-04T09:29:43.829Z,28.97
2022-09-04T09:30:43.846Z,28.89
2022-09-04T09:31:43.732Z,28.87
2022-09-04T09:32:43.775Z,28.74
2022-09-04T09:33:43.719Z,28.57
2022-09-04T09:34:43.791Z,27.86
2022-09-04T09:35:43.731Z,27.80
2022-09-04T09:36:43.700Z,28.24
2022-09-04T09:37:43.667Z,28.46
2022-09-04T09:38:43.674Z,28.89
2022-09-04T09:39:43.844Z,28.64
2022-09-04T09:40:43.666Z,28.54
2022-09-04T09:41:43.631Z,28.08
2022-09-04T09:42:43.630Z,27.99
2022-09-04T09:43:44.022Z,28.08
2022-09-04T09:44:44.626Z,28.43
2022-09-04T09:45:43.903Z,28.30
2022-09-04T09:46:43.579Z,28.40
2022-09-04T09:47:43.563Z,28.32
2022-09-04T09:48:43.581Z,28.27
2022-09-04T09:49:43.746Z,28.27
2022-09-04T09:50:43.539Z,28.03
2022-09-04T09:51:43.539Z,28.03
2022-09-04T09:52:43.573Z,28.36
2022-09-04T09:53:46.989Z,28.35
2022-09-04T09:54:43.636Z,28.11
2022-09-04T09:55:43.488Z,28.45
2022-09-04T09:56:53.574Z,28.76
2022-09-04T09:57:44.463Z,29.02
2022-09-04T09:58:43.510Z,29.35
2022-09-04T09:59:43.459Z,29.84
2022-09-04T10:00:43.439Z,29.89
2022-09-04T10:01:43.503Z,30.19
2022-09-04T10:02:43.843Z,30.40
2022-09-04T10:03:43.622Z,30.53
2022-09-04T10:04:43.405Z,30.44
2022-09-04T10:05:43.401Z,30.46
2022-09-04T10:06:43.414Z,30.75
2022-09-04T10:07:43.401Z,31.03
2022-09-04T10:08:43.384Z,30.76
2022-09-04T10:09:43.388Z,30.67
2022-09-04T10:10:43.385Z,30.18
2022-09-04T10:11:43.754Z,30.13
2022-09-04T10:12:43.348Z,30.44
2022-09-04T10:13:43.306Z,30.59
2022-09-04T10:14:43.362Z,30.59
2022-09-04T10:15:43.338Z,30.42
2022-09-04T10:16:43.299Z,30.63
2022-09-04T10:17:43.256Z,30.78
2022-09-04T10:18:43.295Z,30.59
2022-09-04T10:19:43.262Z,30.45
2022-09-04T10:20:43.310Z,30.54
2022-09-04T10:21:43.255Z,30.45
2022-09-04T10:22:43.205Z,30.38
2022-09-04T10:23:43.192Z,30.23
2022-09-04T10:24:43.260Z,30.19
2022-09-04T10:25:43.233Z,30.11
2022-09-04T10:26:43.181Z,30.19
2022-09-04T10:27:44.109Z,30.34
2022-09-04T10:28:43.302Z,30.26
2022-09-04T10:29:43.179Z,30.29
2022-09-04T10:30:43.219Z,30.07
2022-09-04T10:31:43.133Z,30.11
2022-09-04T10:32:43.123Z,30.22
2022-09-04T10:33:43.215Z,30.08
2022-09-04T10:34:43.143Z,30.40
2022-09-04T10:35:43.081Z,30.64
2022-09-04T10:43:53.952Z,30.94
2022-09-04T10:44:52.953Z,30.30
2022-09-04T10:53:13.559Z,31.49
2022-09-04T10:54:13.539Z,31.57
2022-09-04T10:55:13.540Z,30.79
2022-09-04T10:56:13.516Z,30.08
2022-09-04T10:57:13.506Z,29.64
2022-09-04T10:58:13.535Z,29.10
2022-09-04T10:59:13.491Z,29.21
2022-09-04T11:00:13.676Z,29.54
2022-09-04T11:01:13.692Z,29.51
2022-09-04T11:02:13.579Z,29.44
2022-09-04T11:03:13.448Z,29.42
2022-09-04T11:04:13.444Z,29.39
2022-09-04T11:05:13.463Z,29.63
2022-09-04T11:06:13.421Z,30.03
2022-09-04T11:07:13.441Z,30.18
2022-09-04T11:08:13.408Z,30.48
2022-09-04T11:09:13.448Z,30.30
2022-09-04T11:10:13.688Z,29.76
2022-09-04T11:11:13.384Z,29.55
2022-09-04T11:12:13.383Z,30.06
2022-09-04T11:13:13.353Z,30.38
2022-09-04T11:14:13.370Z,30.78
2022-09-04T11:15:13.356Z,30.79
2022-09-04T11:21:03.687Z,31.71
2022-09-04T11:22:03.690Z,31.78
2022-09-04T11:23:03.666Z,31.62
2022-09-04T11:24:03.644Z,31.40
2022-09-04T11:25:03.651Z,31.35
2022-09-04T11:26:03.657Z,31.53
2022-09-04T11:27:07.918Z,31.74
2022-09-04T11:28:03.608Z,31.64
2022-09-04T11:29:03.587Z,31.41
2022-09-04T11:30:03.618Z,31.38
2022-09-04T11:31:03.570Z,31.56
2022-09-04T11:32:03.676Z,31.37
2022-09-04T11:33:03.604Z,31.10
2022-09-04T11:34:03.648Z,31.13
2022-09-04T11:35:03.565Z,31.07
2022-09-04T11:36:05.765Z,31.27
2022-09-04T11:37:03.517Z,30.98
2022-09-04T11:38:03.504Z,30.78
2022-09-04T11:39:03.489Z,31.07
2022-09-04T11:40:03.658Z,31.04
2022-09-04T11:41:03.474Z,31.28
2022-09-04T11:42:03.488Z,31.37
2022-09-04T11:43:03.666Z,31.00
2022-09-04T11:44:03.571Z,30.63
2022-09-04T11:45:03.480Z,30.45
2022-09-04T11:46:03.477Z,30.30
2022-09-04T11:47:03.415Z,29.99
2022-09-04T11:48:03.406Z,30.38
2022-09-04T11:49:03.432Z,30.56
2022-09-04T11:50:03.415Z,30.34
2022-09-04T11:51:03.429Z,29.64
2022-09-04T11:52:03.517Z,29.49
2022-09-04T11:53:03.674Z,29.21
2022-09-04T11:54:03.381Z,29.20
2022-09-04T11:55:03.355Z,29.36
2022-09-04T11:56:03.384Z,29.03
2022-09-04T11:57:03.317Z,28.62
2022-09-04T11:58:03.366Z,28.40
2022-09-04T11:59:03.307Z,28.73
2022-09-04T12:00:03.324Z,29.00
2022-09-04T12:01:03.341Z,29.35
2022-09-04T12:02:03.468Z,29.67
2022-09-04T12:03:03.311Z,29.97
2022-09-04T12:04:03.288Z,30.18
2022-09-04T12:05:03.291Z,30.19
2022-09-04T12:06:03.250Z,30.76
2022-09-04T12:07:03.221Z,31.04
2022-09-04T12:08:03.247Z,31.47
2022-09-04T12:09:03.210Z,31.71
2022-09-04T12:10:03.278Z,31.79
2022-09-04T12:11:03.242Z,32.10
2022-09-04T12:12:03.178Z,31.88
2022-09-04T12:13:14.974Z,31.99
2022-09-04T12:14:04.156Z,31.99
2022-09-04T12:15:07.584Z,32.03
2022-09-04T12:16:04.155Z,32.34
2022-09-04T12:17:03.190Z,31.94
2022-09-04T12:18:03.134Z,31.67
2022-09-04T12:19:03.424Z,30.96
2022-09-04T12:20:06.165Z,31.13
2022-09-04T12:21:03.094Z,31.37
2022-09-04T12:22:03.078Z,31.91
2022-09-04T12:23:03.064Z,32.17
2022-09-04T12:24:03.059Z,32.13
2022-09-04T12:25:03.091Z,32.47
2022-09-04T12:26:03.082Z,32.13
2022-09-04T12:27:03.054Z,31.99
2022-09-04T12:28:03.190Z,32.06
2022-09-04T12:29:03.130Z,32.09
2022-09-04T12:30:02.998Z,32.09
2022-09-04T12:31:03.028Z,32.09
2022-09-04T12:32:03.072Z,31.99
2022-09-04T12:33:03.047Z,31.57
2022-09-04T12:34:03.960Z,31.92
2022-09-04T12:35:02.993Z,32.07
2022-09-04T12:36:02.943Z,32.28
2022-09-04T12:37:03.345Z,32.29
2022-09-04T12:38:02.969Z,32.21
2022-09-04T12:39:02.920Z,32.10
2022-09-04T12:40:03.007Z,32.06
2022-09-04T12:41:02.915Z,32.10
2022-09-04T12:42:02.878Z,31.71
2022-09-04T12:43:02.872Z,32.03
2022-09-04T12:44:02.871Z,32.51
2022-09-04T12:45:02.907Z,32.46
2022-09-04T12:46:04.215Z,31.88
2022-09-04T12:47:02.870Z,31.42
2022-09-04T12:48:02.818Z,31.05
2022-09-04T12:49:02.822Z,30.64
2022-09-04T12:50:02.809Z,30.10
2022-09-04T12:51:02.812Z,29.63
2022-09-04T12:52:02.783Z,29.67
2022-09-04T12:53:02.807Z,30.13
2022-09-04T12:54:02.787Z,30.53
2022-09-04T12:55:02.917Z,30.53
2022-09-04T12:56:02.776Z,30.01
2022-09-04T12:57:02.763Z,29.89
2022-09-04T12:58:02.714Z,30.07
2022-09-04T12:59:03.728Z,30.60
2022-09-04T13:00:02.723Z,30.78
2022-09-04T13:01:02.860Z,30.75
2022-09-04T13:02:02.764Z,30.59
2022-09-04T13:03:02.834Z,30.13
2022-09-04T13:04:02.689Z,29.92
2022-09-04T13:05:02.748Z,29.88
2022-09-04T13:06:02.637Z,29.85
2022-09-04T13:07:02.622Z,29.79
2022-09-04T13:08:02.624Z,29.47
2022-09-04T13:09:02.634Z,29.17
2022-09-04T13:10:02.633Z,29.02
2022-09-04T13:11:02.605Z,28.87
2022-09-04T13:12:02.696Z,28.74